• Join FlightAware (Why Join?)
  • Login
  • US Flag 
07:27PM EDT


 

Airport Tracker/Info


-or-


 

Live Flight TrackerFlight Track Log ✈ N78LS ✈ 30-Apr-2013 ✈ KFRG - KLAL

Flight Track Log - Related Links

Times and Time Zones

All times are in EDT time to prevent confusion due to time zone crossing. See the N78LS flight status page for this flight to view local times or setup timezone preferences in your user account.

Time Position Orientation Groundspeed Altitude Reporting Facility
EDT Latitude Longitude Course Direction KTS MPH feet Rate Location/Type
09:10AM 40.6500 -73.6167 217° Southwest 167 192 4,300  Level New York TRACON
09:11AM 40.6167 -73.6667 229° Southwest 179 206 5,000 540 Climbing New York TRACON
09:12AM 40.6362 -73.7219 252° West  Level FlightAware Approximate
09:13AM 40.6053 -73.7723 201° Southwest  Level FlightAware Approximate
09:13AM 40.5550 -73.7647 230° Southwest 189 217 6,000  Level New York Center
09:14AM 40.5679 -73.8142 237° Southwest  Level FlightAware Approximate
09:14AM 40.5081 -73.8119 217° Southwest 189 217 6,600  Level New York Center
09:15AM 40.5241 -73.8426 217° Southwest  Level FlightAware Approximate
09:15AM 40.4739 -73.8431 215° Southwest 184 212 7,100  Level New York Center
09:16AM 40.4225 -73.8925 216° Southwest 204 235 7,100 1,920 Level New York Center
09:17AM 40.3800 -73.9261 211° Southwest 211 243 11,000 420 Climbing New York Center
09:18AM 40.3308 -73.9672 213° Southwest 188 216 8,000 -1,260 Descending New York Center
09:19AM 40.2944 -73.9983 213° Southwest 180 207 8,500 480 Climbing New York Center
09:20AM 40.2497 -74.0397 215° Southwest 180 207 9,000 480 Climbing New York Center
09:21AM 40.2072 -74.0703 209° Southwest 175 201 9,500 480 Climbing New York Center
09:22AM 40.1686 -74.1064 216° Southwest 175 201 10,000 540 Climbing New York Center
09:23AM 40.1344 -74.1375 215° Southwest 175 201 10,600 540 Climbing New York Center
09:24AM 40.0958 -74.1708 213° Southwest 175 201 11,100 240 Climbing New York Center
09:25AM 40.0508 -74.2147 217° Southwest 175 201 11,100  Level New York Center
09:26AM 40.0081 -74.2533 215° Southwest 181 208 11,100 -60 Level New York Center
09:27AM 39.9650 -74.2944 216° Southwest 186 214 11,000  Descending New York Center
09:28AM 39.9264 -74.3303 215° Southwest 191 220 11,100  Climbing New York Center
09:29AM 39.8836 -74.3714 216° Southwest 196 226 11,100  Level New York Center
09:31AM 39.7853 -74.4628 216° Southwest 192 221 11,100  Level Washington Center
09:32AM 39.7439 -74.5039 217° Southwest 192 221 11,200  Climbing Washington Center
09:33AM 39.7028 -74.5450 218° Southwest 192 221 11,200  Level Washington Center
09:34AM 39.6592 -74.5833 214° Southwest 192 221 11,200  Level Washington Center
09:35AM 39.6181 -74.6244 218° Southwest 192 221 11,200  Level Washington Center
09:36AM 39.5744 -74.6628 214° Southwest 192 221 11,200  Level Washington Center
09:37AM 39.5311 -74.7036 216° Southwest 192 221 11,200  Level Washington Center
09:38AM 39.4856 -74.7472 216° Southwest 192 221 11,200  Level Washington Center
09:39AM 39.4442 -74.7853 215° Southwest 192 221 11,200  Level Washington Center
09:40AM 39.4006 -74.8261 216° Southwest 192 221 11,200  Level Washington Center
09:41AM 39.3592 -74.8642 215° Southwest 192 221 11,200  Level Washington Center
09:42AM 39.3156 -74.9047 216° Southwest 192 221 11,200  Level Washington Center
09:43AM 39.2742 -74.9428 215° Southwest 192 221 11,200  Level Washington Center
09:44AM 39.2283 -74.9728 207° Southwest 192 221 11,300 240 Climbing Washington Center
09:45AM 39.1847 -74.9997 206° Southwest 182 209 11,700 240 Climbing Washington Center
09:46AM 39.1392 -75.0242 203° Southwest 177 204 11,800 240 Climbing Washington Center
09:47AM 39.0956 -75.0514 206° Southwest 177 204 12,200 180 Climbing Washington Center
09:48AM 39.0539 -75.0731 202° Southwest 177 204 12,200  Level Washington Center
09:49AM 39.0061 -75.1028 206° Southwest 177 204 12,200  Level Washington Center
09:50AM 38.9583 -75.1272 202° Southwest 182 209 12,200  Level Washington Center
09:51AM 38.9103 -75.1567 205° Southwest 187 215 12,200  Level Washington Center
09:52AM 38.8625 -75.1839 204° Southwest 192 221 12,200  Level Washington Center
09:53AM 38.8125 -75.2133 205° Southwest 192 221 12,200  Level Washington Center
09:54AM 38.7647 -75.2428 206° Southwest 192 221 12,200  Level Washington Center
09:55AM 38.7189 -75.2722 207° Southwest 192 221 12,200  Level Washington Center
09:56AM 38.6711 -75.3044 208° Southwest 198 228 12,200  Level Washington Center
09:57AM 38.6233 -75.3339 206° Southwest 198 228 12,200 -60 Level Washington Center
09:58AM 38.5733 -75.3658 207° Southwest 198 228 12,100 -60 Descending Washington Center
09:59AM 38.5253 -75.3981 208° Southwest 198 228 12,100  Level Washington Center
10:00AM 38.4775 -75.4272 206° Southwest 198 228 12,100  Level Washington Center
10:01AM 38.4294 -75.4567 206° Southwest 198 228 12,100  Level Washington Center
10:02AM 38.3817 -75.4883 207° Southwest 198 228 12,100  Level Washington Center
10:03AM 38.3336 -75.5203 208° Southwest 198 228 12,100  Level Washington Center
10:04AM 38.2858 -75.5442 201° Southwest 203 234 12,100  Level Washington Center
10:05AM 38.2419 -75.5786 212° Southwest 203 234 12,100  Level Washington Center
10:06AM 38.1897 -75.6050 202° Southwest 198 228 12,100  Level Washington Center
10:07AM 38.1439 -75.6367 209° Southwest 198 228 12,100  Level Washington Center
10:08AM 38.0939 -75.6631 203° Southwest 193 222 12,100  Level Washington Center
10:09AM 38.0458 -75.6944 207° Southwest 193 222 12,100  Level Washington Center
10:10AM 37.9978 -75.7261 207° Southwest 193 222 12,100  Level Washington Center
10:11AM 37.9519 -75.7578 209° Southwest 193 222 12,100  Level Washington Center
10:12AM 37.9061 -75.7892 208° Southwest 193 222 12,100  Level Washington Center
10:13AM 37.8581 -75.8153 203° Southwest 193 222 12,100  Level Washington Center
10:14AM 37.8122 -75.8389 202° Southwest 199 229 12,100  Level Washington Center
10:15AM 37.7642 -75.8703 207° Southwest 186 214 12,100  Level Washington Center
10:16AM 37.7161 -75.9017 207° Southwest 180 207 12,100  Level Washington Center
10:17AM 37.6700 -75.9303 206° Southwest 191 220 12,100  Level Washington Center
10:18AM 37.6219 -75.9561 203° Southwest 180 207 12,100  Level Washington Center
10:19AM 37.5697 -75.9717 193° South 185 213 12,100  Level Washington Center
10:20AM 37.5178 -75.9767 184° South 191 220 12,100  Level Washington Center
10:21AM 37.4656 -75.9869 189° South 189 217 12,100  Level Washington Center
10:21AM 37.4656 -75.9869 189° South 191 220 12,100  Level Washington Center
10:22AM 37.4133 -75.9944 187° South 191 220 12,100  Level Washington Center
10:23AM 37.3592 -75.9994 184° South 196 226 12,100 -60 Level Washington Center
10:24AM 37.3028 -76.0200 196° South 187 215 12,000  Descending Washington Center
10:25AM 37.2547 -76.0433 201° Southwest 190 219 12,100  Climbing Washington Center
10:26AM 37.2067 -76.0664 201° Southwest 189 217 12,100  Level Washington Center
10:27AM 37.1606 -76.0869 200° South 189 217 12,100  Level Washington Center
10:28AM 37.1042 -76.1100 198° South 189 217 12,100  Level Washington Center
10:29AM 37.0497 -76.1331 199° South 189 217 12,100 -60 Level Washington Center
10:30AM 36.9997 -76.1561 200° South 191 220 12,000  Descending Washington Center
10:31AM 36.9475 -76.1792 199° South 190 219 12,100  Climbing Washington Center
10:33AM 36.8889 -76.2047 199° South 194 223 12,000  Descending Washington Center
10:33AM 36.8636 -76.2408 229° Southwest 186 214 12,100 60 Climbing Washington Center
10:34AM 36.8531 -76.2486 211° Southwest 184 212 12,100  Level Washington Center
10:34AM 36.8300 -76.2847 231° Southwest 186 214 12,100  Level Washington Center
10:35AM 36.8153 -76.3028 224° Southwest 189 217 12,100  Level Washington Center
10:35AM 36.7942 -76.3311 227° Southwest 187 215 12,100  Level Washington Center
10:36AM 36.7794 -76.3492 224° Southwest 189 217 12,100  Level Washington Center
10:36AM 36.7564 -76.3775 225° Southwest 188 216 12,100  Level Washington Center
10:37AM 36.7417 -76.3956 225° Southwest 189 217 12,100  Level Washington Center
10:37AM 36.7142 -76.4367 230° Southwest 187 215 12,100  Level Washington Center
10:39AM 36.6764 -76.4881 227° Southwest 189 217 12,100 -60 Level Washington Center
10:40AM 36.6383 -76.5342 224° Southwest 184 212 12,000  Descending Washington Center
10:41AM 36.6028 -76.5778 225° Southwest 184 212 12,100  Climbing Washington Center
10:42AM 36.5711 -76.6214 228° Southwest 189 217 12,100  Level Washington Center
10:43AM 36.5350 -76.6672 226° Southwest 189 217 12,100  Level Washington Center
10:44AM 36.4992 -76.7133 226° Southwest 189 217 12,100  Level Washington Center
10:45AM 36.4592 -76.7489 216° Southwest 183 211 12,100  Level Washington Center
10:46AM 36.4131 -76.7844 212° Southwest 183 211 12,100  Level Washington Center
10:47AM 36.3708 -76.8172 212° Southwest 188 216 12,100  Level Washington Center
10:48AM 36.3267 -76.8500 211° Southwest 188 216 12,100  Level Washington Center
10:49AM 36.2825 -76.8828 211° Southwest 188 216 12,100  Level Washington Center
10:50AM 36.2406 -76.9156 212° Southwest 188 216 12,100  Level Washington Center
10:51AM 36.1942 -76.9508 212° Southwest 188 216 12,100  Level Washington Center
10:52AM 36.1481 -76.9836 210° Southwest 188 216 12,100  Level Washington Center
10:53AM 36.1039 -77.0161 211° Southwest 188 216 12,100  Level Washington Center
10:54AM 36.0594 -77.0489 211° Southwest 188 216 12,100  Level Washington Center
10:55AM 36.0153 -77.0814 211° Southwest 188 216 12,100  Level Washington Center
10:56AM 35.9711 -77.1139 211° Southwest 188 216 12,100  Level Washington Center
10:57AM 35.9289 -77.1492 214° Southwest 188 216 12,100  Level Washington Center
10:58AM 35.8847 -77.1814 211° Southwest 188 216 12,100  Level Washington Center
10:59AM 35.8383 -77.2139 210° Southwest 188 216 12,100  Level Washington Center
11:00AM 35.7961 -77.2489 214° Southwest 188 216 12,100  Level Washington Center
11:01AM 35.7539 -77.2786 210° Southwest 188 216 12,100  Level Washington Center
11:02AM 35.7056 -77.3108 208° Southwest 188 216 12,100  Level Washington Center
11:03AM 35.6614 -77.3458 213° Southwest 188 216 12,100  Level Washington Center
11:04AM 35.6169 -77.3781 211° Southwest 188 216 12,100  Level Washington Center
11:05AM 35.5725 -77.4128 212° Southwest 188 216 12,100  Level Washington Center
11:06AM 35.5261 -77.4450 209° Southwest 193 222 12,100  Level Washington Center
11:07AM 35.4839 -77.4769 212° Southwest 188 216 12,100  Level Washington Center
11:08AM 35.4375 -77.5092 210° Southwest 188 216 12,100  Level Washington Center
11:09AM 35.3953 -77.5411 212° Southwest 188 216 12,100  Level Washington Center
11:10AM 35.3508 -77.5783 214° Southwest 188 216 12,100  Level Washington Center
11:11AM 35.3086 -77.6103 212° Southwest 188 216 12,100  Level Washington Center
11:12AM 35.2642 -77.6475 214° Southwest 193 222 12,100  Level Washington Center
11:13AM 35.2217 -77.6844 215° Southwest 193 222 12,100  Level Washington Center
11:14AM 35.1794 -77.7189 214° Southwest 193 222 12,100  Level Washington Center
11:15AM 35.1331 -77.7533 211° Southwest 193 222 12,100 -60 Level Washington Center
11:16AM 35.0906 -77.7903 215° Southwest 193 222 12,000  Descending Washington Center
11:17AM 35.0461 -77.8247 212° Southwest 193 222 12,100  Climbing Washington Center
11:18AM 35.0017 -77.8614 214° Southwest 193 222 12,100  Level Washington Center
11:19AM 34.9592 -77.8956 213° Southwest 193 222 12,100  Level Washington Center
11:20AM 34.9167 -77.9325 215° Southwest 193 222 12,100  Level Washington Center
11:21AM 34.8700 -77.9692 213° Southwest 193 222 12,100  Level Washington Center
11:22AM 34.8258 -77.9956 206° Southwest 188 216 12,100  Level Washington Center
11:23AM 34.7833 -78.0347 217° Southwest 188 216 12,100  Level Washington Center
11:24AM 34.7367 -78.0689 211° Southwest 194 223 12,100 -60 Level Washington Center
11:25AM 34.6900 -78.1028 211° Southwest 194 223 12,000 -60 Descending Washington Center
11:26AM 34.6456 -78.1367 212° Southwest 194 223 12,000  Level Washington Center
11:27AM 34.6011 -78.1681 210° Southwest 194 223 12,000  Level Washington Center
11:28AM 34.5544 -78.1994 209° Southwest 194 223 12,000  Level Washington Center
11:29AM 34.5100 -78.2333 212° Southwest 189 217 12,000  Level Washington Center
11:30AM 34.4244 -78.2939 210° Southwest 193 222 12,000  Level Jacksonville Center
11:31AM 34.3797 -78.3264 211° Southwest 198 228 12,000  Level Jacksonville Center
11:32AM 34.3331 -78.3617 212° Southwest 198 228 12,000  Level Jacksonville Center
11:33AM 34.2881 -78.3939 211° Southwest 198 228 12,000  Level Jacksonville Center
11:34AM 34.2414 -78.4267 210° Southwest 198 228 12,000  Level Jacksonville Center
11:35AM 34.1925 -78.4617 211° Southwest 198 228 12,000 -60 Level Jacksonville Center
11:36AM 34.1458 -78.4967 212° Southwest 198 228 11,900  Descending Jacksonville Center
11:37AM 34.1119 -78.5411 227° Southwest 198 228 12,000  Climbing Jacksonville Center
11:38AM 34.0758 -78.5856 226° Southwest 193 222 12,000  Level Jacksonville Center
11:39AM 34.0397 -78.6297 225° Southwest 188 216 12,000  Level Jacksonville Center
11:40AM 34.0036 -78.6742 226° Southwest 188 216 12,000  Level Jacksonville Center
11:41AM 33.9678 -78.7186 226° Southwest 193 222 12,000  Level Jacksonville Center
11:42AM 33.9317 -78.7628 225° Southwest 193 222 12,000  Level Jacksonville Center
11:43AM 33.8956 -78.8094 227° Southwest 193 222 12,000  Level Jacksonville Center
11:44AM 33.8594 -78.8536 225° Southwest 193 222 12,000  Level Jacksonville Center
11:45AM 33.8233 -78.8978 225° Southwest 193 222 12,000  Level Jacksonville Center
11:46AM 33.7892 -78.9419 227° Southwest 193 222 12,000  Level Jacksonville Center
11:47AM 33.7486 -78.9836 221° Southwest 199 229 12,000  Level Jacksonville Center
11:48AM 33.7167 -79.0300 230° Southwest 194 223 12,000  Level Jacksonville Center
11:49AM 33.6825 -79.0739 227° Southwest 194 223 12,000  Level Jacksonville Center
11:50AM 33.6464 -79.1178 225° Southwest 194 223 12,000  Level Jacksonville Center
11:51AM 33.6183 -79.1564 229° Southwest 194 223 12,000  Level Jacksonville Center
11:52AM 33.5819 -79.2006 225° Southwest 194 223 12,000  Level Jacksonville Center
11:53AM 33.5436 -79.2444 224° Southwest 194 223 12,000 -60 Level Jacksonville Center
11:54AM 33.5075 -79.2906 227° Southwest 194 223 11,900  Descending Jacksonville Center
11:55AM 33.4647 -79.3247 214° Southwest 194 223 12,000  Climbing Jacksonville Center
11:56AM 33.4153 -79.3517 204° Southwest 194 223 12,000  Level Jacksonville Center
11:57AM 33.3725 -79.3858 214° Southwest 194 223 12,000  Level Jacksonville Center
11:58AM 33.3294 -79.4172 211° Southwest 188 216 12,000  Level Jacksonville Center
11:59AM 33.2972 -79.4631 230° Southwest 188 216 12,000  Level Jacksonville Center
12:00PM 33.2672 -79.5117 234° Southwest 183 211 12,000  Level Jacksonville Center
12:01PM 33.2331 -79.5600 230° Southwest 183 211 12,000 -60 Level Jacksonville Center
12:02PM 33.2008 -79.6058 230° Southwest 183 211 11,900 -60 Descending Jacksonville Center
12:03PM 33.1686 -79.6492 228° Southwest 183 211 11,900  Level Jacksonville Center
12:04PM 33.1344 -79.6978 230° Southwest 188 216 12,000  Climbing Jacksonville Center
12:05PM 33.1022 -79.7458 231° Southwest 188 216 12,000  Level Jacksonville Center
12:06PM 33.0700 -79.7917 230° Southwest 188 216 12,000  Level Jacksonville Center
12:07PM 33.0356 -79.8375 228° Southwest 188 216 12,000  Level Jacksonville Center
12:08PM 33.0033 -79.8856 231° Southwest 188 216 12,000  Level Jacksonville Center
12:09PM 32.9692 -79.9339 230° Southwest 188 216 12,000  Level Jacksonville Center
12:10PM 32.9347 -79.9794 228° Southwest 188 216 12,000  Level Jacksonville Center
12:11PM 32.9022 -80.0275 231° Southwest 188 216 12,000  Level Jacksonville Center
12:12PM 32.8614 -80.0658 218° Southwest 188 216 12,000 -60 Level Jacksonville Center
12:13PM 32.8164 -80.0994 212° Southwest 188 216 11,900  Descending Jacksonville Center
12:14PM 32.7753 -80.1353 216° Southwest 194 223 12,000  Climbing Jacksonville Center
12:15PM 32.7300 -80.1689 212° Southwest 189 217 12,000  Level Jacksonville Center
12:16PM 32.6869 -80.2022 213° Southwest 189 217 12,000  Level Jacksonville Center
12:17PM 32.6417 -80.2356 212° Southwest 189 217 12,000  Level Jacksonville Center
12:18PM 32.5967 -80.2714 214° Southwest 189 217 12,000  Level Jacksonville Center
12:19PM 32.5514 -80.3072 214° Southwest 189 217 12,000  Level Jacksonville Center
12:20PM 32.5061 -80.3406 212° Southwest 189 217 12,100 60 Climbing Jacksonville Center
12:21PM 32.4631 -80.3714 211° Southwest 189 217 12,200 -60 Climbing Jacksonville Center
12:22PM 32.4175 -80.4022 210° Southwest 189 217 12,000 -120 Descending Jacksonville Center
12:23PM 32.3725 -80.4378 214° Southwest 195 224 12,000  Level Jacksonville Center
12:24PM 32.3272 -80.4708 212° Southwest 195 224 12,100  Climbing Jacksonville Center
12:25PM 32.2817 -80.5042 212° Southwest 195 224 12,100 -60 Level Jacksonville Center
12:26PM 32.2386 -80.5347 211° Southwest 190 219 12,000 -60 Descending Jacksonville Center
12:27PM 32.1953 -80.5703 215° Southwest 190 219 12,000 -60 Level Jacksonville Center
12:28PM 32.1522 -80.6081 217° Southwest 190 219 11,900 -60 Descending Jacksonville Center
12:29PM 32.1131 -80.6408 215° Southwest 190 219 11,900 60 Level Jacksonville Center
12:30PM 32.0722 -80.6861 223° Southwest 190 219 12,100 60 Climbing Jacksonville Center
12:31PM 32.0331 -80.7239 219° Southwest 190 219 12,100  Level Jacksonville Center
12:32PM 31.9939 -80.7542 213° Southwest 189 217 12,100  Level Jacksonville Center
12:33PM 31.9467 -80.7894 212° Southwest 194 223 12,100  Level Jacksonville Center
12:34PM 31.9011 -80.8222 211° Southwest 189 217 12,100 -60 Level Jacksonville Center
12:35PM 31.8619 -80.8550 215° Southwest 189 217 12,000 -60 Descending Jacksonville Center
12:36PM 31.8147 -80.8928 214° Southwest 194 223 12,000  Level Jacksonville Center
12:37PM 31.7775 -80.9253 217° Southwest 194 223 12,000  Level Jacksonville Center
12:38PM 31.7303 -80.9653 216° Southwest 194 223 12,000  Level Jacksonville Center
12:39PM 31.6889 -81.0028 218° Southwest 194 223 12,000  Level Jacksonville Center
12:40PM 31.6519 -81.0378 219° Southwest 194 223 12,000  Level Jacksonville Center
12:41PM 31.6044 -81.0778 216° Southwest 194 223 12,000  Level Jacksonville Center
12:42PM 31.5633 -81.1150 218° Southwest 194 223 12,000  Level Jacksonville Center
12:43PM 31.5261 -81.1475 217° Southwest 194 223 12,000  Level Jacksonville Center
12:44PM 31.4786 -81.1897 217° Southwest 194 223 12,000  Level Jacksonville Center
12:45PM 31.4414 -81.2222 217° Southwest 194 223 12,000  Level Jacksonville Center
12:46PM 31.3961 -81.2619 217° Southwest 194 223 12,000  Level Jacksonville Center
12:47PM 31.3506 -81.2992 215° Southwest 201 231 12,000  Level Jacksonville Center
12:48PM 31.3133 -81.3339 219° Southwest 201 231 12,000  Level Jacksonville Center
12:49PM 31.2700 -81.3686 214° Southwest 201 231 12,000  Level Jacksonville Center
12:50PM 31.2286 -81.4081 219° Southwest 201 231 12,000  Level Jacksonville Center
12:51PM 31.1853 -81.4453 216° Southwest 201 231 12,000  Level Jacksonville Center
12:52PM 31.1419 -81.4822 216° Southwest 201 231 12,000  Level Jacksonville Center
12:53PM 31.1233 -81.4972 215° Southwest 190 219 12,000  Level Jacksonville Center
12:53PM 31.1067 -81.5119 217° Southwest 191 220 12,000  Level Jacksonville Center
12:54PM 31.0611 -81.5514 217° Southwest 193 222 12,000 60 Level Jacksonville Center
12:55PM 31.0197 -81.5858 215° Southwest 186 214 12,200  Climbing Jacksonville Center
12:56PM 30.9825 -81.6203 218° Southwest 186 214 12,100 -120 Descending Jacksonville Center
12:56PM 30.9722 -81.6278 212° Southwest 201 231 12,100  Level Jacksonville Center
12:57PM 30.9331 -81.6672 221° Southwest 201 231 12,100  Level Jacksonville Center
12:58PM 30.8894 -81.7014 214° Southwest 201 231 12,100  Level Jacksonville Center
12:59PM 30.8481 -81.7336 214° Southwest 189 217 12,100  Level Jacksonville Center
01:00PM 30.8044 -81.7753 219° Southwest 201 231 12,100  Level Jacksonville Center
01:01PM 30.7650 -81.8047 213° Southwest 186 214 12,100  Level Jacksonville Center
01:02PM 30.7194 -81.8461 218° Southwest 201 231 12,100  Level Jacksonville Center
01:03PM 30.6822 -81.8781 216° Southwest 183 211 12,100  Level Jacksonville Center
01:04PM 30.6406 -81.9122 215° Southwest 184 212 12,100  Level Jacksonville Center
01:05PM 30.5972 -81.9489 216° Southwest 182 209 12,100  Level Jacksonville Center
01:06PM 30.5556 -81.9831 215° Southwest 184 212 12,100  Level Jacksonville Center
01:07PM 30.5142 -82.0197 217° Southwest 183 211 12,100  Level Jacksonville Center
01:08PM 30.4725 -82.0514 213° Southwest 184 212 12,100  Level Jacksonville Center
01:09PM 30.4206 -82.0686 196° South 186 214 12,200  Climbing Jacksonville Center
01:11PM 30.3581 -82.0861 194° South 189 217 12,100 -60 Descending Jacksonville Center
01:12PM 30.3017 -82.1033 195° South 187 215 12,100 -180 Level Jacksonville Center
01:13PM 30.2494 -82.1158 192° South 192 221 11,800 -360 Descending Jacksonville Center
01:14PM 30.1933 -82.1331 195° South 206 237 11,400 -420 Descending Jacksonville Center
01:15PM 30.1411 -82.1481 194° South 208 239 11,100 -240 Descending Jacksonville Center
01:15PM 30.1244 -82.1531 195° South 206 237 11,100  Level Jacksonville Center
01:16PM 30.0725 -82.1653 192° South 200 230 11,100  Level Jacksonville Center
01:17PM 30.0181 -82.1825 195° South 200 230 11,100  Level Jacksonville Center
01:18PM 29.9681 -82.1950 192° South 200 230 11,100  Level Jacksonville Center
01:19PM 29.9181 -82.2094 194° South 200 230 11,200  Climbing Jacksonville Center
01:20PM 29.8661 -82.2267 196° South 195 224 11,100 -60 Descending Jacksonville Center
01:21PM 29.8161 -82.2414 194° South 195 224 11,100  Level Jacksonville Center
01:22PM 29.7658 -82.2561 194° South 190 219 11,100  Level Jacksonville Center
01:23PM 29.7117 -82.2683 191° South 190 219 11,100  Level Jacksonville Center
01:24PM 29.6594 -82.2689 181° South 190 219 11,100  Level Jacksonville Center
01:25PM 29.6031 -82.2594 172° South 195 224 11,100  Level Jacksonville Center
01:26PM 29.5508 -82.2528 174° South 195 224 11,100  Level Jacksonville Center
01:27PM 29.4944 -82.2436 172° South 195 224 11,100 60 Level Jacksonville Center
01:28PM 29.4444 -82.2464 183° South 195 224 11,300 -60 Climbing Jacksonville Center
01:29PM 29.3922 -82.2442 178° South 195 224 11,000 -60 Descending Jacksonville Center
01:30PM 29.3400 -82.2375 174° South 195 224 11,200  Climbing Jacksonville Center
01:31PM 29.2836 -82.2331 176° South 195 224 11,000  Descending Jacksonville Center
01:32PM 29.2419 -82.2286 175° South 196 226 11,200 -60 Climbing Jacksonville Center
01:33PM 29.1750 -82.2147 170° South 195 224 10,900 -420 Descending Jacksonville Center
01:34PM 29.1206 -82.2081 174° South 214 246 10,400 -720 Descending Jacksonville Center
01:35PM 29.0558 -82.1942 169° South 212 244 9,500 -900 Descending Jacksonville Center
01:36PM 28.9828 -82.1853 174° South 230 265 8,500 -1,080 Descending Jacksonville Center
01:37PM 28.9158 -82.1739 172° South 235 270 7,200 -780 Descending Jacksonville Center
01:38PM 28.8531 -82.1553 165° South 233 268 7,000  Descending Jacksonville Center
01:39PM 28.8133 -82.1439 166° South 226 260 7,200 60 Climbing Jacksonville Center
01:40PM 28.7569 -82.1347 172° South 214 246 7,200 -60 Level Jacksonville Center
01:41PM 28.7006 -82.1281 174° South 214 246 7,100 -120 Descending Jacksonville Center
01:43PM 28.5667 -82.1167 176° South 203 234 6,900 -360 Descending Tampa TRACON
01:44PM 28.5167 -82.0833 150° Southeast 224 258 6,000 -780 Descending Tampa TRACON
01:45PM 28.4500 -82.0667 168° South 220 253 5,400 -720 Descending Tampa TRACON
01:46PM 28.4000 -82.0333 150° Southeast 212 244 4,600 -720 Descending Tampa TRACON
01:47PM 28.3500 -82.0167 164° South 201 231 4,000 -360 Descending Tampa TRACON
01:48PM 28.3000 -82.0167 180° South 185 213 3,900  Descending Tampa TRACON
01:49PM 28.2500 -82.0167 180° South 179 206 4,100 -180 Climbing Tampa TRACON
01:50PM 28.2000 -82.0167 180° South 192 221 3,600 -840 Descending Tampa TRACON
01:51PM 28.1500 -82.0000 164° South 205 236 2,600 -840 Descending Tampa TRACON
01:52PM 28.0833 -81.9833 168° South 196 226 2,000 -480 Descending Tampa TRACON
01:53PM 28.0333 -81.9667 164° South 177 204 1,600 -240 Descending Tampa TRACON
01:54PM 28.0000 -81.9500 156° South 145 167 1,500 -120 Descending Tampa TRACON
01:56PM 27.9833 -82.0167 180° South  Level FlightAware Approximate
02:03PM 27.9889 -82.0186 180° South  Level Estimated
02:04PM 27.9833 -82.0167 180° South  Level FlightAware Approximate